sensor_id;sensor_type;location;lat;lon;timestamp;temperature;humidity
3564;DHT22;1796;52.388;13.096;2023-08-06T00:00:39;16.40;99.90
3564;DHT22;1796;52.388;13.096;2023-08-06T00:03:06;16.40;99.90
3564;DHT22;1796;52.388;13.096;2023-08-06T00:05:33;16.40;99.90
3564;DHT22;1796;52.388;13.096;2023-08-06T00:07:59;16.40;99.90
3564;DHT22;1796;52.388;13.096;2023-08-06T00:10:26;16.40;99.90
3564;DHT22;1796;52.388;13.096;2023-08-06T00:12:53;16.40;99.90
3564;DHT22;1796;52.388;13.096;2023-08-06T00:15:20;16.30;99.90
3564;DHT22;1796;52.388;13.096;2023-08-06T00:17:48;16.30;99.90
3564;DHT22;1796;52.388;13.096;2023-08-06T00:20:15;16.30;99.90
3564;DHT22;1796;52.388;13.096;2023-08-06T00:22:42;16.30;99.90
3564;DHT22;1796;52.388;13.096;2023-08-06T00:25:09;16.30;99.90
3564;DHT22;1796;52.388;13.096;2023-08-06T00:27:35;16.20;99.90
3564;DHT22;1796;52.388;13.096;2023-08-06T00:30:04;16.20;99.90
3564;DHT22;1796;52.388;13.096;2023-08-06T00:32:31;16.20;99.90
3564;DHT22;1796;52.388;13.096;2023-08-06T00:34:59;16.20;99.90
3564;DHT22;1796;52.388;13.096;2023-08-06T00:37:26;16.20;99.90
3564;DHT22;1796;52.388;13.096;2023-08-06T00:39:53;16.20;99.90
3564;DHT22;1796;52.388;13.096;2023-08-06T00:42:20;16.20;99.90
3564;DHT22;1796;52.388;13.096;2023-08-06T00:44:48;16.20;99.90
3564;DHT22;1796;52.388;13.096;2023-08-06T00:47:15;16.10;99.90
3564;DHT22;1796;52.388;13.096;2023-08-06T00:49:42;16.20;99.90
3564;DHT22;1796;52.388;13.096;2023-08-06T00:52:11;16.20;99.90
3564;DHT22;1796;52.388;13.096;2023-08-06T00:54:38;16.20;99.90
3564;DHT22;1796;52.388;13.096;2023-08-06T00:57:07;16.20;99.90
3564;DHT22;1796;52.388;13.096;2023-08-06T00:59:34;16.20;99.90
3564;DHT22;1796;52.388;13.096;2023-08-06T01:02:01;16.20;99.90
3564;DHT22;1796;52.388;13.096;2023-08-06T01:04:28;16.20;99.90
3564;DHT22;1796;52.388;13.096;2023-08-06T01:07:04;16.20;99.90
3564;DHT22;1796;52.388;13.096;2023-08-06T01:09:48;16.20;99.90
3564;DHT22;1796;52.388;13.096;2023-08-06T01:12:26;16.20;99.90
3564;DHT22;1796;52.388;13.096;2023-08-06T01:15:02;16.20;99.90
3564;DHT22;1796;52.388;13.096;2023-08-06T01:17:31;16.20;99.90
3564;DHT22;1796;52.388;13.096;2023-08-06T01:19:58;16.20;99.90
3564;DHT22;1796;52.388;13.096;2023-08-06T01:22:26;16.20;99.90
3564;DHT22;1796;52.388;13.096;2023-08-06T01:24:53;16.10;99.90
3564;DHT22;1796;52.388;13.096;2023-08-06T01:27:26;16.10;99.90
3564;DHT22;1796;52.388;13.096;2023-08-06T01:30:00;16.10;99.90
3564;DHT22;1796;52.388;13.096;2023-08-06T01:32:30;16.10;99.90
3564;DHT22;1796;52.388;13.096;2023-08-06T01:35:00;16.20;99.90
3564;DHT22;1796;52.388;13.096;2023-08-06T01:37:29;16.20;99.90
3564;DHT22;1796;52.388;13.096;2023-08-06T01:39:56;16.20;99.90
3564;DHT22;1796;52.388;13.096;2023-08-06T01:42:23;16.20;99.90
3564;DHT22;1796;52.388;13.096;2023-08-06T01:44:50;16.20;99.90
3564;DHT22;1796;52.388;13.096;2023-08-06T01:47:17;16.20;99.90
3564;DHT22;1796;52.388;13.096;2023-08-06T01:49:44;16.20;99.90
3564;DHT22;1796;52.388;13.096;2023-08-06T01:52:11;16.20;99.90
3564;DHT22;1796;52.388;13.096;2023-08-06T01:54:39;16.20;99.90
3564;DHT22;1796;52.388;13.096;2023-08-06T01:57:06;16.10;99.90
3564;DHT22;1796;52.388;13.096;2023-08-06T01:59:33;16.10;99.90
3564;DHT22;1796;52.388;13.096;2023-08-06T02:02:00;16.10;99.90
3564;DHT22;1796;52.388;13.096;2023-08-06T02:04:26;16.10;99.90
3564;DHT22;1796;52.388;13.096;2023-08-06T02:06:53;16.10;99.90
3564;DHT22;1796;52.388;13.096;2023-08-06T02:09:20;16.10;99.90
3564;DHT22;1796;52.388;13.096;2023-08-06T02:11:48;16.10;99.90
3564;DHT22;1796;52.388;13.096;2023-08-06T02:14:15;16.10;99.90
3564;DHT22;1796;52.388;13.096;2023-08-06T02:16:42;16.10;99.90
3564;DHT22;1796;52.388;13.096;2023-08-06T02:19:09;16.10;99.90
3564;DHT22;1796;52.388;13.096;2023-08-06T02:21:35;16.10;99.90
3564;DHT22;1796;52.388;13.096;2023-08-06T02:24:03;16.10;99.90
3564;DHT22;1796;52.388;13.096;2023-08-06T02:26:30;16.10;99.90
3564;DHT22;1796;52.388;13.096;2023-08-06T02:28:58;16.10;99.90
3564;DHT22;1796;52.388;13.096;2023-08-06T02:31:25;16.20;99.90
3564;DHT22;1796;52.388;13.096;2023-08-06T02:33:51;16.10;99.90
3564;DHT22;1796;52.388;13.096;2023-08-06T02:36:19;16.10;99.90
3564;DHT22;1796;52.388;13.096;2023-08-06T02:38:46;16.10;99.90
3564;DHT22;1796;52.388;13.096;2023-08-06T02:41:13;16.00;99.90
3564;DHT22;1796;52.388;13.096;2023-08-06T02:43:40;16.00;99.90
3564;DHT22;1796;52.388;13.096;2023-08-06T02:46:08;16.00;99.90
3564;DHT22;1796;52.388;13.096;2023-08-06T02:48:35;15.90;99.90
3564;DHT22;1796;52.388;13.096;2023-08-06T02:51:02;15.80;99.90
3564;DHT22;1796;52.388;13.096;2023-08-06T02:53:29;15.80;99.90
3564;DHT22;1796;52.388;13.096;2023-08-06T02:55:57;15.80;99.90
3564;DHT22;1796;52.388;13.096;2023-08-06T02:58:24;15.80;99.90
3564;DHT22;1796;52.388;13.096;2023-08-06T03:01:00;15.70;99.90
3564;DHT22;1796;52.388;13.096;2023-08-06T03:03:29;15.70;99.90
3564;DHT22;1796;52.388;13.096;2023-08-06T03:05:56;15.70;99.90
3564;DHT22;1796;52.388;13.096;2023-08-06T03:08:23;15.70;99.90
3564;DHT22;1796;52.388;13.096;2023-08-06T03:10:50;15.60;99.90
3564;DHT22;1796;52.388;13.096;2023-08-06T03:13:17;15.70;99.90
3564;DHT22;1796;52.388;13.096;2023-08-06T03:15:51;15.60;99.90
3564;DHT22;1796;52.388;13.096;2023-08-06T03:18:18;15.60;99.90
3564;DHT22;1796;52.388;13.096;2023-08-06T03:20:46;15.60;99.90
3564;DHT22;1796;52.388;13.096;2023-08-06T03:23:13;15.60;99.90
3564;DHT22;1796;52.388;13.096;2023-08-06T03:25:40;15.60;99.90
3564;DHT22;1796;52.388;13.096;2023-08-06T03:28:07;15.60;99.90
3564;DHT22;1796;52.388;13.096;2023-08-06T03:30:34;15.60;99.90
3564;DHT22;1796;52.388;13.096;2023-08-06T03:33:01;15.60;99.90
3564;DHT22;1796;52.388;13.096;2023-08-06T03:35:27;15.60;99.90
3564;DHT22;1796;52.388;13.096;2023-08-06T03:37:56;15.50;99.90
3564;DHT22;1796;52.388;13.096;2023-08-06T03:40:22;15.60;99.90
3564;DHT22;1796;52.388;13.096;2023-08-06T03:42:49;15.50;99.90
3564;DHT22;1796;52.388;13.096;2023-08-06T03:45:16;15.50;99.90
3564;DHT22;1796;52.388;13.096;2023-08-06T03:47:43;15.50;99.90
3564;DHT22;1796;52.388;13.096;2023-08-06T03:50:10;15.50;99.90
3564;DHT22;1796;52.388;13.096;2023-08-06T03:52:37;15.50;99.90
3564;DHT22;1796;52.388;13.096;2023-08-06T03:55:05;15.50;99.90
3564;DHT22;1796;52.388;13.096;2023-08-06T03:57:32;15.50;99.90
3564;DHT22;1796;52.388;13.096;2023-08-06T03:59:59;15.50;99.90
3564;DHT22;1796;52.388;13.096;2023-08-06T04:02:26;15.50;99.90
3564;DHT22;1796;52.388;13.096;2023-08-06T04:04:53;15.50;99.90
3564;DHT22;1796;52.388;13.096;2023-08-06T04:07:20;15.40;99.90
3564;DHT22;1796;52.388;13.096;2023-08-06T04:09:54;15.50;99.90
3564;DHT22;1796;52.388;13.096;2023-08-06T04:12:23;15.50;99.90
3564;DHT22;1796;52.388;13.096;2023-08-06T04:14:50;15.40;99.90
3564;DHT22;1796;52.388;13.096;2023-08-06T04:17:17;15.50;99.90
3564;DHT22;1796;52.388;13.096;2023-08-06T04:19:46;15.40;99.90
3564;DHT22;1796;52.388;13.096;2023-08-06T04:22:14;15.40;99.90
3564;DHT22;1796;52.388;13.096;2023-08-06T04:24:41;15.40;99.90
3564;DHT22;1796;52.388;13.096;2023-08-06T04:27:08;15.40;99.90
3564;DHT22;1796;52.388;13.096;2023-08-06T04:29:36;15.40;99.90
3564;DHT22;1796;52.388;13.096;2023-08-06T04:32:05;15.40;99.90
3564;DHT22;1796;52.388;13.096;2023-08-06T04:34:32;15.40;99.90
3564;DHT22;1796;52.388;13.096;2023-08-06T04:36:59;15.40;99.90
3564;DHT22;1796;52.388;13.096;2023-08-06T04:39:26;15.40;99.90
3564;DHT22;1796;52.388;13.096;2023-08-06T04:41:53;15.40;99.90
3564;DHT22;1796;52.388;13.096;2023-08-06T04:44:21;15.50;99.90
3564;DHT22;1796;52.388;13.096;2023-08-06T04:46:49;15.50;99.90
3564;DHT22;1796;52.388;13.096;2023-08-06T04:49:16;15.50;99.90
3564;DHT22;1796;52.388;13.096;2023-08-06T04:51:42;15.40;99.90
3564;DHT22;1796;52.388;13.096;2023-08-06T04:54:10;15.50;99.90
3564;DHT22;1796;52.388;13.096;2023-08-06T04:56:36;15.50;99.90
3564;DHT22;1796;52.388;13.096;2023-08-06T04:59:03;15.50;99.90
3564;DHT22;1796;52.388;13.096;2023-08-06T05:01:31;15.50;99.90
3564;DHT22;1796;52.388;13.096;2023-08-06T05:03:59;15.40;99.90
3564;DHT22;1796;52.388;13.096;2023-08-06T05:06:26;15.40;99.90
3564;DHT22;1796;52.388;13.096;2023-08-06T05:08:53;15.40;99.90
3564;DHT22;1796;52.388;13.096;2023-08-06T05:11:20;15.40;99.90
3564;DHT22;1796;52.388;13.096;2023-08-06T05:13:47;15.40;99.90
3564;DHT22;1796;52.388;13.096;2023-08-06T05:16:13;15.40;99.90
3564;DHT22;1796;52.388;13.096;2023-08-06T05:18:40;15.40;99.90
3564;DHT22;1796;52.388;13.096;2023-08-06T05:21:08;15.40;99.90
3564;DHT22;1796;52.388;13.096;2023-08-06T05:23:35;15.40;99.90
3564;DHT22;1796;52.388;13.096;2023-08-06T05:26:02;15.40;99.90
3564;DHT22;1796;52.388;13.096;2023-08-06T05:28:29;15.50;99.90
3564;DHT22;1796;52.388;13.096;2023-08-06T05:30:56;15.50;99.90
3564;DHT22;1796;52.388;13.096;2023-08-06T05:33:23;15.40;99.90
3564;DHT22;1796;52.388;13.096;2023-08-06T05:35:50;15.50;99.90
3564;DHT22;1796;52.388;13.096;2023-08-06T05:38:18;15.60;99.90
3564;DHT22;1796;52.388;13.096;2023-08-06T05:40:45;15.60;99.90
3564;DHT22;1796;52.388;13.096;2023-08-06T05:43:11;15.70;99.90
3564;DHT22;1796;52.388;13.096;2023-08-06T05:45:38;15.70;99.90
3564;DHT22;1796;52.388;13.096;2023-08-06T05:48:05;15.70;99.90
3564;DHT22;1796;52.388;13.096;2023-08-06T05:50:32;15.80;99.90
3564;DHT22;1796;52.388;13.096;2023-08-06T05:52:59;15.90;99.90
3564;DHT22;1796;52.388;13.096;2023-08-06T05:55:27;15.90;99.90
3564;DHT22;1796;52.388;13.096;2023-08-06T05:57:54;15.90;99.90
3564;DHT22;1796;52.388;13.096;2023-08-06T06:00:21;15.90;99.90
3564;DHT22;1796;52.388;13.096;2023-08-06T06:02:48;16.00;99.90
3564;DHT22;1796;52.388;13.096;2023-08-06T06:05:15;16.00;99.90
3564;DHT22;1796;52.388;13.096;2023-08-06T06:07:42;16.10;99.90
3564;DHT22;1796;52.388;13.096;2023-08-06T06:10:09;16.20;99.90
3564;DHT22;1796;52.388;13.096;2023-08-06T06:12:38;16.30;99.90
3564;DHT22;1796;52.388;13.096;2023-08-06T06:15:06;16.20;99.90
3564;DHT22;1796;52.388;13.096;2023-08-06T06:17:32;16.20;99.90
3564;DHT22;1796;52.388;13.096;2023-08-06T06:19:59;16.20;99.90
3564;DHT22;1796;52.388;13.096;2023-08-06T06:22:26;16.20;99.90
3564;DHT22;1796;52.388;13.096;2023-08-06T06:24:54;16.20;99.90
3564;DHT22;1796;52.388;13.096;2023-08-06T06:27:20;16.20;99.90
3564;DHT22;1796;52.388;13.096;2023-08-06T06:29:49;16.20;99.90
3564;DHT22;1796;52.388;13.096;2023-08-06T06:32:17;16.30;99.90
3564;DHT22;1796;52.388;13.096;2023-08-06T06:34:43;16.40;99.90
3564;DHT22;1796;52.388;13.096;2023-08-06T06:37:10;16.50;99.90
3564;DHT22;1796;52.388;13.096;2023-08-06T06:39:37;16.50;99.90
3564;DHT22;1796;52.388;13.096;2023-08-06T06:42:04;16.50;99.90
3564;DHT22;1796;52.388;13.096;2023-08-06T06:44:31;16.50;99.90
3564;DHT22;1796;52.388;13.096;2023-08-06T06:46:59;16.50;99.90
3564;DHT22;1796;52.388;13.096;2023-08-06T06:49:26;16.60;99.90
3564;DHT22;1796;52.388;13.096;2023-08-06T06:51:53;16.70;99.90
3564;DHT22;1796;52.388;13.096;2023-08-06T06:54:20;16.80;99.90
3564;DHT22;1796;52.388;13.096;2023-08-06T06:56:47;16.70;99.90
3564;DHT22;1796;52.388;13.096;2023-08-06T06:59:14;16.90;99.90
3564;DHT22;1796;52.388;13.096;2023-08-06T07:01:40;17.10;99.90
3564;DHT22;1796;52.388;13.096;2023-08-06T07:04:09;17.20;99.90
3564;DHT22;1796;52.388;13.096;2023-08-06T07:06:35;17.10;99.90
3564;DHT22;1796;52.388;13.096;2023-08-06T07:09:02;17.00;99.90
3564;DHT22;1796;52.388;13.096;2023-08-06T07:11:29;17.10;99.90
3564;DHT22;1796;52.388;13.096;2023-08-06T07:13:56;17.20;99.90
3564;DHT22;1796;52.388;13.096;2023-08-06T07:16:24;17.30;99.90
3564;DHT22;1796;52.388;13.096;2023-08-06T07:18:51;17.30;99.90
3564;DHT22;1796;52.388;13.096;2023-08-06T07:21:20;17.30;99.90
3564;DHT22;1796;52.388;13.096;2023-08-06T07:23:47;17.40;99.90
3564;DHT22;1796;52.388;13.096;2023-08-06T07:26:16;17.40;99.90
3564;DHT22;1796;52.388;13.096;2023-08-06T07:28:42;17.30;99.90
3564;DHT22;1796;52.388;13.096;2023-08-06T07:31:10;17.30;99.90
3564;DHT22;1796;52.388;13.096;2023-08-06T07:33:37;17.30;99.90
3564;DHT22;1796;52.388;13.096;2023-08-06T07:36:12;17.20;99.90
3564;DHT22;1796;52.388;13.096;2023-08-06T07:38:40;17.30;99.90
3564;DHT22;1796;52.388;13.096;2023-08-06T07:41:08;17.30;99.90
3564;DHT22;1796;52.388;13.096;2023-08-06T07:43:35;17.30;99.90
3564;DHT22;1796;52.388;13.096;2023-08-06T07:46:02;17.30;99.90
3564;DHT22;1796;52.388;13.096;2023-08-06T07:48:29;17.40;99.90
3564;DHT22;1796;52.388;13.096;2023-08-06T07:50:56;17.60;99.90
3564;DHT22;1796;52.388;13.096;2023-08-06T07:53:24;17.40;99.90
3564;DHT22;1796;52.388;13.096;2023-08-06T07:55:54;17.50;99.90
3564;DHT22;1796;52.388;13.096;2023-08-06T07:58:21;17.60;99.90
3564;DHT22;1796;52.388;13.096;2023-08-06T08:00:48;17.60;99.90
3564;DHT22;1796;52.388;13.096;2023-08-06T08:03:16;17.80;99.90
3564;DHT22;1796;52.388;13.096;2023-08-06T08:05:43;17.80;99.90
3564;DHT22;1796;52.388;13.096;2023-08-06T08:08:10;18.00;99.90
3564;DHT22;1796;52.388;13.096;2023-08-06T08:10:37;18.20;99.90
3564;DHT22;1796;52.388;13.096;2023-08-06T08:13:06;18.20;99.90
3564;DHT22;1796;52.388;13.096;2023-08-06T08:15:33;18.00;99.90
3564;DHT22;1796;52.388;13.096;2023-08-06T08:18:00;18.30;99.90
3564;DHT22;1796;52.388;13.096;2023-08-06T08:20:27;18.50;99.90
3564;DHT22;1796;52.388;13.096;2023-08-06T08:22:58;18.40;99.90
3564;DHT22;1796;52.388;13.096;2023-08-06T08:25:25;18.50;99.90
3564;DHT22;1796;52.388;13.096;2023-08-06T08:27:52;18.60;99.90
3564;DHT22;1796;52.388;13.096;2023-08-06T08:30:21;18.60;99.90
3564;DHT22;1796;52.388;13.096;2023-08-06T08:32:48;18.40;99.90
3564;DHT22;1796;52.388;13.096;2023-08-06T08:35:15;18.30;99.90
3564;DHT22;1796;52.388;13.096;2023-08-06T08:37:42;18.40;99.90
3564;DHT22;1796;52.388;13.096;2023-08-06T08:40:09;18.60;99.90
3564;DHT22;1796;52.388;13.096;2023-08-06T08:42:37;18.70;99.90
3564;DHT22;1796;52.388;13.096;2023-08-06T08:45:05;18.60;99.90
3564;DHT22;1796;52.388;13.096;2023-08-06T08:47:35;18.50;99.90
3564;DHT22;1796;52.388;13.096;2023-08-06T08:50:04;18.60;99.90
3564;DHT22;1796;52.388;13.096;2023-08-06T08:52:32;18.50;99.90
3564;DHT22;1796;52.388;13.096;2023-08-06T08:55:01;18.60;99.90
3564;DHT22;1796;52.388;13.096;2023-08-06T08:57:28;18.50;99.90
3564;DHT22;1796;52.388;13.096;2023-08-06T08:59:55;18.60;99.90
3564;DHT22;1796;52.388;13.096;2023-08-06T09:02:25;18.50;99.90
3564;DHT22;1796;52.388;13.096;2023-08-06T09:04:58;18.40;99.90
3564;DHT22;1796;52.388;13.096;2023-08-06T09:07:29;18.50;99.90
3564;DHT22;1796;52.388;13.096;2023-08-06T09:09:59;18.50;99.90
3564;DHT22;1796;52.388;13.096;2023-08-06T09:12:29;18.60;99.90
3564;DHT22;1796;52.388;13.096;2023-08-06T09:14:56;18.70;99.90
3564;DHT22;1796;52.388;13.096;2023-08-06T09:17:23;18.70;99.90
3564;DHT22;1796;52.388;13.096;2023-08-06T09:19:50;18.60;99.90
3564;DHT22;1796;52.388;13.096;2023-08-06T09:22:18;18.70;99.90
3564;DHT22;1796;52.388;13.096;2023-08-06T09:24:45;18.50;99.90
3564;DHT22;1796;52.388;13.096;2023-08-06T09:27:13;18.50;99.90
3564;DHT22;1796;52.388;13.096;2023-08-06T09:29:41;18.50;99.90
3564;DHT22;1796;52.388;13.096;2023-08-06T09:32:09;18.70;99.90
3564;DHT22;1796;52.388;13.096;2023-08-06T09:34:39;18.80;99.90
3564;DHT22;1796;52.388;13.096;2023-08-06T09:37:07;18.80;99.90
3564;DHT22;1796;52.388;13.096;2023-08-06T09:39:37;18.80;99.90
3564;DHT22;1796;52.388;13.096;2023-08-06T09:42:04;18.80;99.90
3564;DHT22;1796;52.388;13.096;2023-08-06T09:44:32;18.70;99.90
3564;DHT22;1796;52.388;13.096;2023-08-06T09:47:02;18.70;99.90
3564;DHT22;1796;52.388;13.096;2023-08-06T09:49:40;18.60;99.90
3564;DHT22;1796;52.388;13.096;2023-08-06T09:52:11;18.60;99.90
3564;DHT22;1796;52.388;13.096;2023-08-06T09:54:40;18.60;99.90
3564;DHT22;1796;52.388;13.096;2023-08-06T09:57:08;18.80;99.90
3564;DHT22;1796;52.388;13.096;2023-08-06T09:59:35;18.90;99.90
3564;DHT22;1796;52.388;13.096;2023-08-06T10:02:11;19.00;99.90
3564;DHT22;1796;52.388;13.096;2023-08-06T10:04:39;19.20;99.90
3564;DHT22;1796;52.388;13.096;2023-08-06T10:07:06;19.40;99.90
3564;DHT22;1796;52.388;13.096;2023-08-06T10:09:33;19.40;99.90
3564;DHT22;1796;52.388;13.096;2023-08-06T10:12:02;19.50;99.90
3564;DHT22;1796;52.388;13.096;2023-08-06T10:14:33;19.70;99.90
3564;DHT22;1796;52.388;13.096;2023-08-06T10:17:02;19.90;99.90
3564;DHT22;1796;52.388;13.096;2023-08-06T10:19:30;19.90;99.90
3564;DHT22;1796;52.388;13.096;2023-08-06T10:22:11;20.20;99.90
3564;DHT22;1796;52.388;13.096;2023-08-06T10:24:51;20.20;99.90
3564;DHT22;1796;52.388;13.096;2023-08-06T10:27:29;20.30;99.90
3564;DHT22;1796;52.388;13.096;2023-08-06T10:29:56;20.30;99.90
3564;DHT22;1796;52.388;13.096;2023-08-06T10:32:47;20.40;99.90
3564;DHT22;1796;52.388;13.096;2023-08-06T10:35:28;20.10;99.90
3564;DHT22;1796;52.388;13.096;2023-08-06T10:37:58;20.20;99.90
3564;DHT22;1796;52.388;13.096;2023-08-06T10:40:26;20.20;99.90
3564;DHT22;1796;52.388;13.096;2023-08-06T10:42:58;20.30;99.90
3564;DHT22;1796;52.388;13.096;2023-08-06T10:45:25;20.30;99.90
3564;DHT22;1796;52.388;13.096;2023-08-06T10:47:54;20.40;99.90
3564;DHT22;1796;52.388;13.096;2023-08-06T10:50:22;20.30;99.90
3564;DHT22;1796;52.388;13.096;2023-08-06T10:52:49;19.90;99.90
3564;DHT22;1796;52.388;13.096;2023-08-06T10:55:24;19.70;99.90
3564;DHT22;1796;52.388;13.096;2023-08-06T10:57:52;19.60;99.90
3564;DHT22;1796;52.388;13.096;2023-08-06T11:00:21;19.50;99.90
3564;DHT22;1796;52.388;13.096;2023-08-06T11:02:49;19.30;99.90
3564;DHT22;1796;52.388;13.096;2023-08-06T11:05:16;19.20;99.90
3564;DHT22;1796;52.388;13.096;2023-08-06T11:07:43;19.20;99.90
3564;DHT22;1796;52.388;13.096;2023-08-06T11:10:12;19.10;99.90
3564;DHT22;1796;52.388;13.096;2023-08-06T11:12:39;19.00;99.90
3564;DHT22;1796;52.388;13.096;2023-08-06T11:15:07;19.20;99.90
3564;DHT22;1796;52.388;13.096;2023-08-06T11:17:36;19.30;99.90
3564;DHT22;1796;52.388;13.096;2023-08-06T11:20:04;19.20;99.90
3564;DHT22;1796;52.388;13.096;2023-08-06T11:22:32;19.20;99.90
3564;DHT22;1796;52.388;13.096;2023-08-06T11:24:59;19.30;99.90
3564;DHT22;1796;52.388;13.096;2023-08-06T11:27:27;19.30;99.90
3564;DHT22;1796;52.388;13.096;2023-08-06T11:29:55;19.20;99.90
3564;DHT22;1796;52.388;13.096;2023-08-06T11:32:22;19.20;99.90
3564;DHT22;1796;52.388;13.096;2023-08-06T11:34:50;19.20;99.90
3564;DHT22;1796;52.388;13.096;2023-08-06T11:37:20;19.30;99.90
3564;DHT22;1796;52.388;13.096;2023-08-06T11:39:48;19.20;99.90
3564;DHT22;1796;52.388;13.096;2023-08-06T11:42:15;19.50;99.90
3564;DHT22;1796;52.388;13.096;2023-08-06T11:44:42;19.60;99.90
3564;DHT22;1796;52.388;13.096;2023-08-06T11:47:13;19.80;99.90
3564;DHT22;1796;52.388;13.096;2023-08-06T11:49:41;19.70;99.90
3564;DHT22;1796;52.388;13.096;2023-08-06T11:52:15;19.80;99.90
3564;DHT22;1796;52.388;13.096;2023-08-06T11:54:44;19.90;99.90
3564;DHT22;1796;52.388;13.096;2023-08-06T11:57:11;19.80;99.90
3564;DHT22;1796;52.388;13.096;2023-08-06T11:59:39;19.80;99.90
3564;DHT22;1796;52.388;13.096;2023-08-06T12:02:08;20.00;99.90
3564;DHT22;1796;52.388;13.096;2023-08-06T12:04:58;19.90;99.90
3564;DHT22;1796;52.388;13.096;2023-08-06T12:07:28;20.00;99.90
3564;DHT22;1796;52.388;13.096;2023-08-06T12:09:56;20.10;99.90
3564;DHT22;1796;52.388;13.096;2023-08-06T12:12:22;20.40;99.90
3564;DHT22;1796;52.388;13.096;2023-08-06T12:14:49;20.50;99.90
3564;DHT22;1796;52.388;13.096;2023-08-06T12:17:16;20.50;99.90
3564;DHT22;1796;52.388;13.096;2023-08-06T12:19:45;20.40;99.90
3564;DHT22;1796;52.388;13.096;2023-08-06T12:22:13;20.60;99.90
3564;DHT22;1796;52.388;13.096;2023-08-06T12:24:41;20.90;99.90
3564;DHT22;1796;52.388;13.096;2023-08-06T12:27:08;20.80;99.90
3564;DHT22;1796;52.388;13.096;2023-08-06T12:29:36;20.90;99.90
3564;DHT22;1796;52.388;13.096;2023-08-06T12:32:03;20.90;99.90
3564;DHT22;1796;52.388;13.096;2023-08-06T12:34:30;21.10;99.90
3564;DHT22;1796;52.388;13.096;2023-08-06T12:36:57;21.10;99.90
3564;DHT22;1796;52.388;13.096;2023-08-06T12:39:24;21.10;99.90
3564;DHT22;1796;52.388;13.096;2023-08-06T12:41:55;21.20;99.90
3564;DHT22;1796;52.388;13.096;2023-08-06T12:44:23;21.20;99.90
3564;DHT22;1796;52.388;13.096;2023-08-06T12:46:50;21.30;99.90
3564;DHT22;1796;52.388;13.096;2023-08-06T12:49:17;21.40;99.90
3564;DHT22;1796;52.388;13.096;2023-08-06T12:51:44;21.20;99.90
3564;DHT22;1796;52.388;13.096;2023-08-06T12:54:10;21.30;99.90
3564;DHT22;1796;52.388;13.096;2023-08-06T12:56:37;21.30;99.90
3564;DHT22;1796;52.388;13.096;2023-08-06T12:59:05;21.40;99.90
3564;DHT22;1796;52.388;13.096;2023-08-06T13:01:32;21.20;99.90
3564;DHT22;1796;52.388;13.096;2023-08-06T13:04:00;21.20;99.90
3564;DHT22;1796;52.388;13.096;2023-08-06T13:06:27;21.10;99.90
3564;DHT22;1796;52.388;13.096;2023-08-06T13:08:54;21.00;99.90
3564;DHT22;1796;52.388;13.096;2023-08-06T13:11:20;20.70;99.90
3564;DHT22;1796;52.388;13.096;2023-08-06T13:13:47;20.60;99.90
3564;DHT22;1796;52.388;13.096;2023-08-06T13:16:16;20.50;99.90
3564;DHT22;1796;52.388;13.096;2023-08-06T13:18:42;20.50;99.90
3564;DHT22;1796;52.388;13.096;2023-08-06T13:21:09;20.40;99.90
3564;DHT22;1796;52.388;13.096;2023-08-06T13:23:36;20.50;99.90
3564;DHT22;1796;52.388;13.096;2023-08-06T13:26:03;20.70;99.90
3564;DHT22;1796;52.388;13.096;2023-08-06T13:28:30;20.60;99.90
3564;DHT22;1796;52.388;13.096;2023-08-06T13:30:57;20.50;99.90
3564;DHT22;1796;52.388;13.096;2023-08-06T13:33:25;20.50;99.90
3564;DHT22;1796;52.388;13.096;2023-08-06T13:35:53;20.60;99.90
3564;DHT22;1796;52.388;13.096;2023-08-06T13:38:19;20.60;99.90
3564;DHT22;1796;52.388;13.096;2023-08-06T13:40:46;20.60;99.90
3564;DHT22;1796;52.388;13.096;2023-08-06T13:43:14;20.70;99.90
3564;DHT22;1796;52.388;13.096;2023-08-06T13:45:42;20.70;99.90
3564;DHT22;1796;52.388;13.096;2023-08-06T13:48:09;20.90;99.90
3564;DHT22;1796;52.388;13.096;2023-08-06T13:50:37;20.90;99.90
3564;DHT22;1796;52.388;13.096;2023-08-06T13:53:04;20.90;99.90
3564;DHT22;1796;52.388;13.096;2023-08-06T13:55:31;20.70;99.90
3564;DHT22;1796;52.388;13.096;2023-08-06T13:57:58;20.30;99.90
3564;DHT22;1796;52.388;13.096;2023-08-06T14:00:25;19.10;99.90
3564;DHT22;1796;52.388;13.096;2023-08-06T14:02:52;18.50;99.90
3564;DHT22;1796;52.388;13.096;2023-08-06T14:05:19;18.20;99.90
3564;DHT22;1796;52.388;13.096;2023-08-06T14:07:47;18.20;99.90
3564;DHT22;1796;52.388;13.096;2023-08-06T14:10:14;18.20;99.90
3564;DHT22;1796;52.388;13.096;2023-08-06T14:12:41;18.30;99.90
3564;DHT22;1796;52.388;13.096;2023-08-06T14:15:08;18.00;99.90
3564;DHT22;1796;52.388;13.096;2023-08-06T14:17:35;17.60;99.90
3564;DHT22;1796;52.388;13.096;2023-08-06T14:20:04;17.40;99.90
3564;DHT22;1796;52.388;13.096;2023-08-06T14:22:33;17.20;99.90
3564;DHT22;1796;52.388;13.096;2023-08-06T14:25:01;17.20;99.90
3564;DHT22;1796;52.388;13.096;2023-08-06T14:27:28;17.10;99.90
3564;DHT22;1796;52.388;13.096;2023-08-06T14:29:55;17.10;99.90
3564;DHT22;1796;52.388;13.096;2023-08-06T14:32:22;16.80;99.90
3564;DHT22;1796;52.388;13.096;2023-08-06T14:34:48;16.80;99.90
3564;DHT22;1796;52.388;13.096;2023-08-06T14:37:16;16.50;99.90
3564;DHT22;1796;52.388;13.096;2023-08-06T14:39:42;16.50;99.90
3564;DHT22;1796;52.388;13.096;2023-08-06T14:42:11;16.50;99.90
3564;DHT22;1796;52.388;13.096;2023-08-06T14:44:37;16.50;99.90
3564;DHT22;1796;52.388;13.096;2023-08-06T14:47:04;16.50;99.90
3564;DHT22;1796;52.388;13.096;2023-08-06T14:49:31;16.50;99.90
3564;DHT22;1796;52.388;13.096;2023-08-06T14:51:58;16.30;99.90
3564;DHT22;1796;52.388;13.096;2023-08-06T14:54:27;16.10;99.90
3564;DHT22;1796;52.388;13.096;2023-08-06T14:56:54;16.00;99.90
3564;DHT22;1796;52.388;13.096;2023-08-06T14:59:22;16.00;99.90
3564;DHT22;1796;52.388;13.096;2023-08-06T15:01:49;16.20;99.90
3564;DHT22;1796;52.388;13.096;2023-08-06T15:04:16;16.40;99.90
3564;DHT22;1796;52.388;13.096;2023-08-06T15:06:44;16.40;99.90
3564;DHT22;1796;52.388;13.096;2023-08-06T15:09:11;16.60;99.90
3564;DHT22;1796;52.388;13.096;2023-08-06T15:11:38;16.70;99.90
3564;DHT22;1796;52.388;13.096;2023-08-06T15:14:04;16.80;99.90
3564;DHT22;1796;52.388;13.096;2023-08-06T15:16:34;16.80;99.90
3564;DHT22;1796;52.388;13.096;2023-08-06T15:19:01;16.70;99.90
3564;DHT22;1796;52.388;13.096;2023-08-06T15:21:27;16.70;99.90
3564;DHT22;1796;52.388;13.096;2023-08-06T15:23:54;16.70;99.90
3564;DHT22;1796;52.388;13.096;2023-08-06T15:26:21;16.70;99.90
3564;DHT22;1796;52.388;13.096;2023-08-06T15:28:48;16.70;99.90
3564;DHT22;1796;52.388;13.096;2023-08-06T15:31:16;16.60;99.90
3564;DHT22;1796;52.388;13.096;2023-08-06T15:33:47;16.40;99.90
3564;DHT22;1796;52.388;13.096;2023-08-06T15:36:14;16.60;99.90
3564;DHT22;1796;52.388;13.096;2023-08-06T15:38:41;16.60;99.90
3564;DHT22;1796;52.388;13.096;2023-08-06T15:41:07;16.50;99.90
3564;DHT22;1796;52.388;13.096;2023-08-06T15:43:34;16.50;99.90
3564;DHT22;1796;52.388;13.096;2023-08-06T15:46:01;16.40;99.90
3564;DHT22;1796;52.388;13.096;2023-08-06T15:48:28;16.30;99.90